createdAt,value
2019-02-09T00:00:33.336Z,997.65
2019-02-09T00:01:33.287Z,997.68
2019-02-09T00:02:33.240Z,997.70
2019-02-09T00:03:33.190Z,997.71
2019-02-09T00:04:33.142Z,997.71
2019-02-09T00:05:33.094Z,997.72
2019-02-09T00:06:33.048Z,997.72
2019-02-09T00:07:32.995Z,997.76
2019-02-09T00:08:32.943Z,997.79
2019-02-09T00:09:32.894Z,997.71
2019-02-09T00:10:32.854Z,997.70
2019-02-09T00:11:32.819Z,997.72
2019-02-09T00:12:32.766Z,997.69
2019-02-09T00:13:32.701Z,997.66
2019-02-09T00:14:32.672Z,997.66
2019-02-09T00:15:32.604Z,997.75
2019-02-09T00:16:32.582Z,997.63
2019-02-09T00:17:32.505Z,997.64
2019-02-09T00:18:32.459Z,997.67
2019-02-09T00:19:32.408Z,997.57
2019-02-09T00:20:32.361Z,997.57
2019-02-09T00:21:32.317Z,997.53
2019-02-09T00:22:32.269Z,997.52
2019-02-09T00:23:32.215Z,997.50
2019-02-09T00:24:32.168Z,997.52
2019-02-09T00:25:32.123Z,997.44
2019-02-09T00:26:32.073Z,997.38
2019-02-09T00:27:32.020Z,997.39
2019-02-09T00:28:31.975Z,997.34
2019-02-09T00:29:31.931Z,997.28
2019-02-09T00:30:31.886Z,997.26
2019-02-09T00:31:31.829Z,997.28
2019-02-09T00:32:31.779Z,997.37
2019-02-09T00:33:31.731Z,997.27
2019-02-09T00:34:31.683Z,997.12
2019-02-09T00:35:31.634Z,997.08
2019-02-09T00:36:31.588Z,997.19
2019-02-09T00:37:31.538Z,997.11
2019-02-09T00:38:31.485Z,997.13
2019-02-09T00:39:31.442Z,997.17
2019-02-09T00:40:31.389Z,997.07
2019-02-09T00:41:31.345Z,997.12
2019-02-09T00:42:31.292Z,997.14
2019-02-09T00:43:31.251Z,997.10
2019-02-09T00:44:31.197Z,997.08
2019-02-09T00:45:31.148Z,997.04
2019-02-09T00:46:31.103Z,996.98
2019-02-09T00:47:31.052Z,997.05
2019-02-09T00:48:31.006Z,997.01
2019-02-09T00:49:30.952Z,997.01
2019-02-09T00:50:30.917Z,997.02
2019-02-09T00:51:30.869Z,997.02
2019-02-09T00:52:30.816Z,996.95
2019-02-09T00:53:30.760Z,997.03
2019-02-09T00:54:30.712Z,996.96
2019-02-09T00:55:30.663Z,997.03
2019-02-09T00:56:30.616Z,996.94
2019-02-09T00:57:30.565Z,996.93
2019-02-09T00:58:30.522Z,996.85
2019-02-09T00:59:30.477Z,996.91
2019-02-09T01:00:31.614Z,997.05
2019-02-09T01:01:30.373Z,997.07
2019-02-09T01:02:30.322Z,997.04
2019-02-09T01:03:30.282Z,996.99
2019-02-09T01:04:30.228Z,996.96
2019-02-09T01:05:30.180Z,996.96
2019-02-09T01:06:30.134Z,996.98
2019-02-09T01:07:30.088Z,996.96
2019-02-09T01:08:30.033Z,997.01
2019-02-09T01:09:29.986Z,997.00
2019-02-09T01:10:29.942Z,997.05
2019-02-09T01:11:29.893Z,997.07
2019-02-09T01:12:29.840Z,997.08
2019-02-09T01:13:29.791Z,996.93
2019-02-09T01:14:29.743Z,996.92
2019-02-09T01:15:29.696Z,996.90
2019-02-09T01:16:29.651Z,996.84
2019-02-09T01:17:29.595Z,996.86
2019-02-09T01:18:29.559Z,996.89
2019-02-09T01:19:29.500Z,996.87
2019-02-09T01:20:29.455Z,996.85
2019-02-09T01:21:29.402Z,996.75
2019-02-09T01:22:29.358Z,996.75
2019-02-09T01:23:29.317Z,996.71
2019-02-09T01:24:29.257Z,996.75
2019-02-09T01:25:29.208Z,996.72
2019-02-09T01:26:29.166Z,996.65
2019-02-09T01:27:29.111Z,996.74
2019-02-09T01:28:29.066Z,996.79
2019-02-09T01:29:29.015Z,996.78
2019-02-09T01:30:28.969Z,996.77
2019-02-09T01:31:28.929Z,996.84
2019-02-09T01:32:28.889Z,996.89
2019-02-09T01:33:28.841Z,996.92
2019-02-09T01:34:28.774Z,996.94
2019-02-09T01:35:28.725Z,996.94
2019-02-09T01:36:28.682Z,996.97
2019-02-09T01:37:28.627Z,996.87
2019-02-09T01:38:28.578Z,996.94
2019-02-09T01:39:28.566Z,996.96
2019-02-09T01:40:28.494Z,997.01
2019-02-09T01:41:28.444Z,996.96
2019-02-09T01:42:28.389Z,996.92
2019-02-09T01:43:28.339Z,996.91
2019-02-09T01:44:28.292Z,996.84
2019-02-09T01:45:28.240Z,996.84
2019-02-09T01:46:28.195Z,996.85
2019-02-09T01:47:28.151Z,996.80
2019-02-09T01:48:28.099Z,996.77
2019-02-09T01:49:28.044Z,996.73
2019-02-09T01:50:27.996Z,996.81
2019-02-09T01:51:27.948Z,996.82
2019-02-09T01:52:27.907Z,996.86
2019-02-09T01:53:27.862Z,996.77
2019-02-09T01:54:27.803Z,996.77
2019-02-09T01:55:27.762Z,996.80
2019-02-09T01:56:27.710Z,996.80
2019-02-09T01:57:27.663Z,996.80
2019-02-09T01:58:27.608Z,996.73
2019-02-09T01:59:27.563Z,996.82
2019-02-09T02:00:27.516Z,996.76
2019-02-09T02:01:27.464Z,996.71
2019-02-09T02:02:27.415Z,996.70
2019-02-09T02:03:27.367Z,996.67
2019-02-09T02:04:27.320Z,996.65
2019-02-09T02:05:27.275Z,996.64
2019-02-09T02:06:27.222Z,996.70
2019-02-09T02:07:27.176Z,996.70
2019-02-09T02:08:27.124Z,996.63
2019-02-09T02:09:27.078Z,996.75
2019-02-09T02:10:27.037Z,996.61
2019-02-09T02:11:26.979Z,996.60
2019-02-09T02:12:26.933Z,996.65
2019-02-09T02:13:26.892Z,996.63
2019-02-09T02:14:26.859Z,996.70
2019-02-09T02:15:26.783Z,996.65
2019-02-09T02:16:26.745Z,996.72
2019-02-09T02:17:26.687Z,996.77
2019-02-09T02:18:26.646Z,996.73
2019-02-09T02:19:26.590Z,996.78
2019-02-09T02:20:26.543Z,996.75
2019-02-09T02:21:26.501Z,996.65
2019-02-09T02:22:26.441Z,996.71
2019-02-09T02:23:26.406Z,996.69
2019-02-09T02:24:26.353Z,996.74
2019-02-09T02:25:28.250Z,996.63
2019-02-09T02:26:26.253Z,996.61
2019-02-09T02:27:26.208Z,996.75
2019-02-09T02:28:26.154Z,996.73
2019-02-09T02:29:26.110Z,996.72
2019-02-09T02:30:26.058Z,996.69
2019-02-09T02:31:26.015Z,996.69
2019-02-09T02:32:25.963Z,996.67
2019-02-09T02:33:25.916Z,996.71
2019-02-09T02:34:25.868Z,996.64
2019-02-09T02:35:25.818Z,996.61
2019-02-09T02:36:25.785Z,996.63
2019-02-09T02:37:25.724Z,996.62
2019-02-09T02:38:25.682Z,996.61
2019-02-09T02:39:25.618Z,996.53
2019-02-09T02:40:25.572Z,996.47
2019-02-09T02:41:25.528Z,996.53
2019-02-09T02:42:25.481Z,996.49
2019-02-09T02:43:25.429Z,996.54
2019-02-09T02:44:25.494Z,996.49
2019-02-09T02:45:25.335Z,996.51
2019-02-09T02:46:25.279Z,996.42
2019-02-09T02:47:25.237Z,996.39
2019-02-09T02:48:25.182Z,996.37
2019-02-09T02:49:25.141Z,996.35
2019-02-09T02:50:25.095Z,996.34
2019-02-09T02:51:25.039Z,996.23
2019-02-09T02:52:24.992Z,996.26
2019-02-09T02:53:24.949Z,996.29
2019-02-09T02:54:24.915Z,996.29
2019-02-09T02:55:24.854Z,996.25
2019-02-09T02:56:24.804Z,996.33
2019-02-09T02:57:24.759Z,996.31
2019-02-09T02:58:24.700Z,996.36
2019-02-09T02:59:24.654Z,996.39
2019-02-09T03:00:31.891Z,996.40
2019-02-09T03:01:24.551Z,996.40
2019-02-09T03:02:24.511Z,996.43
2019-02-09T03:03:24.457Z,996.42
2019-02-09T03:04:24.407Z,996.41
2019-02-09T03:05:24.356Z,996.42
2019-02-09T03:06:24.323Z,996.43
2019-02-09T03:07:24.268Z,996.51
2019-02-09T03:08:24.218Z,996.53
2019-02-09T03:09:24.162Z,996.56
2019-02-09T03:10:24.120Z,996.57
2019-02-09T03:11:24.072Z,996.60
2019-02-09T03:12:24.019Z,996.55
2019-02-09T03:13:23.977Z,996.56
2019-02-09T03:14:23.941Z,996.53
2019-02-09T03:15:23.925Z,996.55
2019-02-09T03:16:23.830Z,996.54
2019-02-09T03:17:23.778Z,996.51
2019-02-09T03:18:23.727Z,996.55
2019-02-09T03:19:23.682Z,996.52
2019-02-09T03:20:23.635Z,996.54
2019-02-09T03:21:23.584Z,996.59
2019-02-09T03:22:23.538Z,996.65
2019-02-09T03:23:23.494Z,996.61
2019-02-09T03:24:23.442Z,996.58
2019-02-09T03:25:23.399Z,996.63
2019-02-09T03:26:23.346Z,996.63
2019-02-09T03:27:23.299Z,996.61
2019-02-09T03:28:23.246Z,996.68
2019-02-09T03:29:23.203Z,996.68
2019-02-09T03:30:23.165Z,996.68
2019-02-09T03:31:23.103Z,996.70
2019-02-09T03:32:23.053Z,996.67
2019-02-09T03:33:23.026Z,996.64
2019-02-09T03:34:22.960Z,996.69
2019-02-09T03:35:22.914Z,996.69
2019-02-09T03:36:22.871Z,996.78
2019-02-09T03:37:22.812Z,996.45
2019-02-09T03:38:22.778Z,996.82
2019-02-09T03:39:22.728Z,996.67
2019-02-09T03:40:22.674Z,996.65
2019-02-09T03:41:22.623Z,996.74
2019-02-09T03:42:22.578Z,996.78
2019-02-09T03:43:22.523Z,996.77
2019-02-09T03:44:22.476Z,996.78
2019-02-09T03:45:22.431Z,996.73
2019-02-09T03:46:22.377Z,996.76
2019-02-09T03:47:22.328Z,996.71
2019-02-09T03:48:22.281Z,996.82
2019-02-09T03:49:22.245Z,996.75
2019-02-09T03:50:22.193Z,996.78
2019-02-09T03:51:22.136Z,996.83
2019-02-09T03:52:22.088Z,996.87
2019-02-09T03:53:22.041Z,996.82
2019-02-09T03:54:21.998Z,996.84
2019-02-09T03:55:21.944Z,996.90
2019-02-09T03:56:21.900Z,996.85
2019-02-09T03:57:21.853Z,996.85
2019-02-09T03:58:21.799Z,996.92
2019-02-09T03:59:21.755Z,996.89
2019-02-09T04:00:21.705Z,997.03
2019-02-09T04:01:21.659Z,996.97
2019-02-09T04:02:21.607Z,997.00
2019-02-09T04:03:21.585Z,996.98
2019-02-09T04:04:21.519Z,996.94
2019-02-09T04:05:21.463Z,997.03
2019-02-09T04:06:21.426Z,997.08
2019-02-09T04:07:21.369Z,997.04
2019-02-09T04:08:21.324Z,997.01
2019-02-09T04:09:21.277Z,997.00
2019-02-09T04:10:21.228Z,997.07
2019-02-09T04:11:21.175Z,997.05
2019-02-09T04:12:21.130Z,997.04
2019-02-09T04:13:21.080Z,997.09
2019-02-09T04:14:21.029Z,997.07
2019-02-09T04:15:20.992Z,997.08
2019-02-09T04:16:20.936Z,997.08
2019-02-09T04:17:20.886Z,997.10
2019-02-09T04:18:20.839Z,997.10
2019-02-09T04:19:20.797Z,997.03
2019-02-09T04:20:20.788Z,997.13
2019-02-09T04:21:20.696Z,997.20
2019-02-09T04:22:20.661Z,997.11
2019-02-09T04:23:20.632Z,997.09
2019-02-09T04:24:20.609Z,997.31
2019-02-09T04:25:20.609Z,997.21
2019-02-09T04:26:20.508Z,997.22
2019-02-09T04:27:20.414Z,997.34
2019-02-09T04:28:20.364Z,997.41
2019-02-09T04:29:20.312Z,997.31
2019-02-09T04:30:20.279Z,997.40
2019-02-09T04:31:20.216Z,997.43
2019-02-09T04:32:20.167Z,997.37
2019-02-09T04:33:20.123Z,997.57
2019-02-09T04:34:20.094Z,997.50
2019-02-09T04:35:20.022Z,997.45
2019-02-09T04:36:19.971Z,997.55
2019-02-09T04:37:19.939Z,997.73
2019-02-09T04:38:19.880Z,997.43
2019-02-09T04:39:21.813Z,997.55
2019-02-09T04:40:19.784Z,997.53
2019-02-09T04:41:19.732Z,997.59
2019-02-09T04:42:19.682Z,997.59
2019-02-09T04:43:19.640Z,997.58
2019-02-09T04:44:19.601Z,997.61
2019-02-09T04:45:19.540Z,997.57
2019-02-09T04:46:19.491Z,997.45
2019-02-09T04:47:19.444Z,997.63
2019-02-09T04:48:19.401Z,997.61
2019-02-09T04:49:19.349Z,997.71
2019-02-09T04:50:19.308Z,997.67
2019-02-09T04:51:19.259Z,997.62
2019-02-09T04:52:19.206Z,997.71
2019-02-09T04:53:19.151Z,997.74
2019-02-09T04:54:19.115Z,997.72
2019-02-09T04:55:19.075Z,997.71
2019-02-09T04:56:19.016Z,997.77
2019-02-09T04:57:18.969Z,997.66
2019-02-09T04:58:18.908Z,997.72
2019-02-09T04:59:18.877Z,997.65
2019-02-09T05:00:18.830Z,997.67
2019-02-09T05:01:18.769Z,997.65
2019-02-09T05:02:18.724Z,997.71
2019-02-09T05:03:18.672Z,997.61
2019-02-09T05:04:18.621Z,997.68
2019-02-09T05:05:18.573Z,997.57
2019-02-09T05:06:18.522Z,997.53
2019-02-09T05:07:18.477Z,997.61
2019-02-09T05:08:18.427Z,997.57
2019-02-09T05:09:18.381Z,997.58
2019-02-09T05:10:18.330Z,997.53
2019-02-09T05:11:18.301Z,997.56
2019-02-09T05:12:18.242Z,997.58
2019-02-09T05:13:18.183Z,997.59
2019-02-09T05:14:18.142Z,997.62
2019-02-09T05:15:18.093Z,997.65
2019-02-09T05:16:18.046Z,997.67
2019-02-09T05:17:17.991Z,997.73
2019-02-09T05:18:17.947Z,997.61
2019-02-09T05:19:17.893Z,997.68
2019-02-09T05:20:17.844Z,997.68
2019-02-09T05:21:17.799Z,997.65
2019-02-09T05:22:17.749Z,997.65
2019-02-09T05:23:17.704Z,997.62
2019-02-09T05:24:17.655Z,997.67
2019-02-09T05:25:17.606Z,997.70
2019-02-09T05:26:17.552Z,997.63
2019-02-09T05:27:17.504Z,997.57
2019-02-09T05:28:17.457Z,997.62
2019-02-09T05:29:17.416Z,997.69
2019-02-09T05:30:17.362Z,997.58
2019-02-09T05:31:22.934Z,997.64
2019-02-09T05:32:17.264Z,997.61
2019-02-09T05:33:17.213Z,997.61
2019-02-09T05:34:17.170Z,997.69
2019-02-09T05:35:17.118Z,997.69
2019-02-09T05:36:17.086Z,997.71
2019-02-09T05:37:17.031Z,997.81
2019-02-09T05:38:16.979Z,997.76
2019-02-09T05:39:16.931Z,997.83
2019-02-09T05:40:16.899Z,997.77
2019-02-09T05:41:16.839Z,997.88
2019-02-09T05:42:16.780Z,997.73
2019-02-09T05:43:16.738Z,997.83
2019-02-09T05:44:16.680Z,997.96
2019-02-09T05:45:16.655Z,998.04
2019-02-09T05:46:16.652Z,998.01
2019-02-09T05:47:16.540Z,997.93
2019-02-09T05:48:16.489Z,997.96
2019-02-09T05:49:16.449Z,998.01
2019-02-09T05:50:16.394Z,998.14
2019-02-09T05:51:16.344Z,998.10
2019-02-09T05:52:16.296Z,998.16
2019-02-09T05:53:16.251Z,998.19
2019-02-09T05:54:16.200Z,998.20
2019-02-09T05:55:16.151Z,998.19
2019-02-09T05:56:16.112Z,998.26
2019-02-09T05:57:16.053Z,998.22
2019-02-09T05:58:16.008Z,998.30
2019-02-09T05:59:15.954Z,998.30
2019-02-09T06:00:15.909Z,998.20
2019-02-09T06:01:15.866Z,998.32
2019-02-09T06:02:15.810Z,998.38
2019-02-09T06:03:15.764Z,998.39
2019-02-09T06:04:15.719Z,998.43
2019-02-09T06:05:15.664Z,998.30
2019-02-09T06:06:15.629Z,998.41
2019-02-09T06:07:15.573Z,998.43
2019-02-09T06:08:15.529Z,998.48
2019-02-09T06:09:15.470Z,998.40
2019-02-09T06:10:15.424Z,998.49
2019-02-09T06:11:15.380Z,998.44
2019-02-09T06:12:15.330Z,998.46
2019-02-09T06:13:15.287Z,998.43
2019-02-09T06:14:15.228Z,998.47
2019-02-09T06:15:15.191Z,998.38
2019-02-09T06:16:15.139Z,998.41
2019-02-09T06:17:15.081Z,998.49
2019-02-09T06:18:15.036Z,998.51
2019-02-09T06:19:14.987Z,998.46
2019-02-09T06:20:14.951Z,998.57
2019-02-09T06:21:14.909Z,998.42
2019-02-09T06:22:14.841Z,998.53
2019-02-09T06:23:14.803Z,998.45
2019-02-09T06:24:14.818Z,998.34
2019-02-09T06:25:14.707Z,998.46
2019-02-09T06:26:14.653Z,998.56
2019-02-09T06:27:14.607Z,998.45
2019-02-09T06:28:14.551Z,998.45
2019-02-09T06:29:14.502Z,998.56
2019-02-09T06:30:14.460Z,998.52
2019-02-09T06:31:14.412Z,998.47
2019-02-09T06:32:14.362Z,998.47
2019-02-09T06:33:14.319Z,998.49
2019-02-09T06:34:14.267Z,998.44
2019-02-09T06:35:14.211Z,998.59
2019-02-09T06:36:14.172Z,998.66
2019-02-09T06:37:14.138Z,998.58
2019-02-09T06:38:14.067Z,998.62
2019-02-09T06:39:14.020Z,998.53
2019-02-09T06:40:13.975Z,998.46
2019-02-09T06:41:13.941Z,998.56
2019-02-09T06:42:13.874Z,998.61
2019-02-09T06:43:13.835Z,998.51
2019-02-09T06:44:13.780Z,998.50
2019-02-09T06:45:13.736Z,998.56
2019-02-09T06:46:13.688Z,998.58
2019-02-09T06:47:13.635Z,998.73
2019-02-09T06:48:13.589Z,998.61
2019-02-09T06:49:13.541Z,998.70
2019-02-09T06:50:13.490Z,998.75
2019-02-09T06:51:13.443Z,998.83
2019-02-09T06:52:13.393Z,998.75
2019-02-09T06:53:13.376Z,998.77
2019-02-09T06:54:13.300Z,998.71
2019-02-09T06:55:13.251Z,998.81
2019-02-09T06:56:13.208Z,998.94
2019-02-09T06:57:13.151Z,999.00
2019-02-09T06:58:13.110Z,999.08
2019-02-09T06:59:13.056Z,999.02
2019-02-09T07:00:13.009Z,998.98
2019-02-09T07:01:12.969Z,998.95
2019-02-09T07:02:12.915Z,998.99
2019-02-09T07:03:12.864Z,999.08
2019-02-09T07:04:12.817Z,999.08
2019-02-09T07:05:12.768Z,999.09
2019-02-09T07:06:12.716Z,999.19
2019-02-09T07:07:12.669Z,999.14
2019-02-09T07:08:12.624Z,999.24
2019-02-09T07:09:12.580Z,999.19
2019-02-09T07:10:12.532Z,999.19
2019-02-09T07:11:12.477Z,999.29
2019-02-09T07:12:12.431Z,999.34
2019-02-09T07:13:12.398Z,999.42
2019-02-09T07:14:12.368Z,999.52
2019-02-09T07:15:12.286Z,999.41
2019-02-09T07:16:12.243Z,999.69
2019-02-09T07:17:12.195Z,999.58
2019-02-09T07:18:12.136Z,999.56
2019-02-09T07:19:12.097Z,999.44
2019-02-09T07:20:12.042Z,999.62
2019-02-09T07:21:11.994Z,999.53
2019-02-09T07:22:11.958Z,999.50
2019-02-09T07:23:11.912Z,999.52
2019-02-09T07:24:11.851Z,999.54
2019-02-09T07:25:11.805Z,999.50
2019-02-09T07:26:11.749Z,999.47
2019-02-09T07:27:11.709Z,999.51
2019-02-09T07:28:11.658Z,999.56
2019-02-09T07:29:11.604Z,999.47
2019-02-09T07:30:11.568Z,999.41
2019-02-09T07:31:11.509Z,999.49
2019-02-09T07:32:11.460Z,999.49
2019-02-09T07:33:11.412Z,999.45
2019-02-09T07:34:11.364Z,999.52
2019-02-09T07:35:11.318Z,999.51
2019-02-09T07:36:11.269Z,999.55
2019-02-09T07:37:11.218Z,999.56
2019-02-09T07:38:11.169Z,999.63
2019-02-09T07:39:11.161Z,999.60
2019-02-09T07:40:11.073Z,999.59
2019-02-09T07:41:11.030Z,999.62
2019-02-09T07:42:10.973Z,999.54
2019-02-09T07:43:10.931Z,999.65
2019-02-09T07:44:10.880Z,999.63
2019-02-09T07:45:10.868Z,999.63
2019-02-09T07:46:10.778Z,999.65
2019-02-09T07:47:10.731Z,999.68
2019-02-09T07:48:10.707Z,999.74
2019-02-09T07:49:10.642Z,999.74
2019-02-09T07:50:10.585Z,999.89
2019-02-09T07:51:10.536Z,999.96
2019-02-09T07:52:10.490Z,999.84
2019-02-09T07:53:10.440Z,999.82
2019-02-09T07:54:10.395Z,999.81
2019-02-09T07:55:10.348Z,999.87
2019-02-09T07:56:10.297Z,999.82
2019-02-09T07:57:10.251Z,999.83
2019-02-09T07:58:10.200Z,999.93
2019-02-09T07:59:10.148Z,999.98
2019-02-09T08:00:10.101Z,1000.01
2019-02-09T08:01:10.051Z,1000.04
2019-02-09T08:02:10.007Z,1000.04
2019-02-09T08:03:09.954Z,1000.02
2019-02-09T08:04:09.905Z,1000.09
2019-02-09T08:05:09.859Z,1000.07
2019-02-09T08:06:09.808Z,1000.14
2019-02-09T08:07:09.760Z,1000.28
2019-02-09T08:08:09.722Z,1000.10
2019-02-09T08:09:09.661Z,1000.28
2019-02-09T08:10:09.621Z,1000.26
2019-02-09T08:11:09.575Z,1000.11
2019-02-09T08:12:09.524Z,1000.04
2019-02-09T08:13:09.470Z,1000.15
2019-02-09T08:14:09.423Z,1000.24
2019-02-09T08:15:09.377Z,1000.28
2019-02-09T08:16:09.515Z,1000.15
2019-02-09T08:17:09.275Z,1000.24
2019-02-09T08:18:09.231Z,1000.21
2019-02-09T08:19:09.178Z,1000.17
2019-02-09T08:20:09.136Z,1000.19
2019-02-09T08:21:09.088Z,1000.21
2019-02-09T08:22:09.042Z,1000.23
2019-02-09T08:23:08.989Z,1000.30
2019-02-09T08:24:08.940Z,1000.27
2019-02-09T08:25:08.901Z,1000.20
2019-02-09T08:26:08.841Z,1000.23
2019-02-09T08:27:08.812Z,1000.22
2019-02-09T08:28:08.743Z,1000.30
2019-02-09T08:29:08.695Z,1000.21
2019-02-09T08:30:08.647Z,1000.34
2019-02-09T08:31:08.605Z,1000.39
2019-02-09T08:32:12.742Z,1000.21
2019-02-09T08:33:08.504Z,1000.20
2019-02-09T08:34:08.459Z,1000.29
2019-02-09T08:35:08.472Z,1000.24
2019-02-09T08:36:08.447Z,1000.29
2019-02-09T08:37:08.310Z,1000.23
2019-02-09T08:38:08.266Z,1000.24
2019-02-09T08:39:08.210Z,1000.24
2019-02-09T08:40:08.164Z,1000.27
2019-02-09T08:41:08.127Z,1000.31
2019-02-09T08:42:08.068Z,1000.20
2019-02-09T08:43:08.019Z,1000.19
2019-02-09T08:44:07.973Z,1000.43
2019-02-09T08:45:07.922Z,1000.23
2019-02-09T08:46:07.882Z,1000.10
2019-02-09T08:47:07.830Z,1000.08
2019-02-09T08:48:07.779Z,1000.31
2019-02-09T08:49:07.728Z,1000.28
2019-02-09T08:50:07.680Z,1000.21
2019-02-09T08:51:07.640Z,1000.34
2019-02-09T08:52:07.588Z,1000.30
2019-02-09T08:53:07.539Z,1000.41
2019-02-09T08:54:07.489Z,1000.21
2019-02-09T08:55:07.447Z,1000.29
2019-02-09T08:56:07.393Z,1000.31
2019-02-09T08:57:07.348Z,1000.24
2019-02-09T08:58:07.305Z,1000.44
2019-02-09T08:59:07.248Z,1000.29
2019-02-09T09:00:07.206Z,1000.31
2019-02-09T09:01:07.156Z,1000.38
2019-02-09T09:02:07.104Z,1000.33
2019-02-09T09:03:07.062Z,1000.28
2019-02-09T09:04:07.008Z,1000.56
2019-02-09T09:05:09.688Z,1000.23
2019-02-09T09:06:06.915Z,1000.27
2019-02-09T09:07:06.862Z,1000.32
2019-02-09T09:08:06.814Z,1000.39
2019-02-09T09:09:06.767Z,1000.47
2019-02-09T09:10:06.720Z,1000.34
2019-02-09T09:11:06.674Z,1000.44
2019-02-09T09:12:06.630Z,1000.46
2019-02-09T09:13:06.576Z,1000.30
2019-02-09T09:14:06.535Z,1000.44
2019-02-09T09:15:06.487Z,1000.52
2019-02-09T09:16:06.432Z,1000.45
2019-02-09T09:17:06.383Z,1000.52
2019-02-09T09:18:06.343Z,1000.47
2019-02-09T09:19:06.289Z,1000.53
2019-02-09T09:20:06.240Z,1000.53
2019-02-09T09:21:06.198Z,1000.60
2019-02-09T09:22:06.149Z,1000.53
2019-02-09T09:23:06.105Z,1000.48
2019-02-09T09:24:06.051Z,1000.53
2019-02-09T09:25:06.007Z,1000.50
2019-02-09T09:26:05.964Z,1000.50
2019-02-09T09:27:05.915Z,1000.67
2019-02-09T09:28:05.860Z,1000.66
2019-02-09T09:29:05.812Z,1000.65
2019-02-09T09:30:07.009Z,1000.76
2019-02-09T09:31:05.716Z,1000.62
2019-02-09T09:32:05.710Z,1000.68
2019-02-09T09:33:05.683Z,1000.74
2019-02-09T09:34:05.644Z,1000.66
2019-02-09T09:35:05.532Z,1000.64
2019-02-09T09:36:05.485Z,1000.80
2019-02-09T09:37:05.548Z,1000.89
2019-02-09T09:38:05.389Z,1000.62
2019-02-09T09:39:05.337Z,1000.66
2019-02-09T09:40:05.288Z,1000.85
2019-02-09T09:41:05.248Z,1000.54
2019-02-09T09:42:05.196Z,1000.57
2019-02-09T09:43:05.150Z,1000.69
2019-02-09T09:44:05.098Z,1000.81
2019-02-09T09:45:05.060Z,1000.67
2019-02-09T09:46:05.007Z,1000.80
2019-02-09T09:47:04.967Z,1000.87
2019-02-09T09:48:04.910Z,1000.78
2019-02-09T09:49:04.862Z,1000.92
2019-02-09T09:50:04.816Z,1000.83
2019-02-09T09:51:04.767Z,1000.88
2019-02-09T09:52:04.721Z,1000.66
2019-02-09T09:53:04.677Z,1000.72
2019-02-09T09:54:04.622Z,1000.80
2019-02-09T09:55:04.595Z,1000.64
2019-02-09T09:56:04.535Z,1000.64
2019-02-09T09:57:04.479Z,1000.69
2019-02-09T09:58:04.437Z,1000.76
2019-02-09T09:59:04.386Z,1000.69
2019-02-09T10:00:04.344Z,1000.78
2019-02-09T10:01:04.289Z,1000.64
2019-02-09T10:02:04.244Z,1001.02
2019-02-09T10:03:04.197Z,1000.76
2019-02-09T10:04:04.149Z,1000.74
2019-02-09T10:05:04.104Z,1000.62
2019-02-09T10:06:04.109Z,1000.84
2019-02-09T10:07:04.007Z,1000.81
2019-02-09T10:08:03.961Z,1000.59
2019-02-09T10:09:03.912Z,1000.71
2019-02-09T10:10:03.861Z,1000.53
2019-02-09T10:11:03.815Z,1000.67
2019-02-09T10:12:03.775Z,1000.66
2019-02-09T10:13:03.727Z,1000.77
2019-02-09T10:14:08.761Z,1000.64
2019-02-09T10:15:03.631Z,1000.74
2019-02-09T10:16:03.579Z,1000.79
2019-02-09T10:17:03.529Z,1000.65
2019-02-09T10:18:03.494Z,1000.62
2019-02-09T10:19:03.443Z,1000.78
2019-02-09T10:20:03.392Z,1000.81
2019-02-09T10:21:03.351Z,1000.82
2019-02-09T10:22:03.295Z,1000.82
2019-02-09T10:23:03.306Z,1000.84
2019-02-09T10:24:03.201Z,1000.97
2019-02-09T10:25:03.149Z,1000.86
2019-02-09T10:26:03.108Z,1001.09
2019-02-09T10:27:03.068Z,1000.83
2019-02-09T10:28:03.013Z,1000.95
2019-02-09T10:29:02.969Z,1001.00
2019-02-09T10:30:02.921Z,1000.87
2019-02-09T10:31:02.877Z,1000.95
2019-02-09T10:32:02.823Z,1000.84
2019-02-09T10:33:02.777Z,1001.05
2019-02-09T10:34:02.731Z,1001.18
2019-02-09T10:35:02.686Z,1001.08
2019-02-09T10:36:02.649Z,1001.16
2019-02-09T10:37:02.585Z,1001.09
2019-02-09T10:38:02.554Z,1001.19
2019-02-09T10:39:02.491Z,1001.21
2019-02-09T10:40:02.444Z,1001.50
2019-02-09T10:41:02.397Z,1001.20
2019-02-09T10:42:02.351Z,1001.14
2019-02-09T10:43:02.307Z,1001.24
2019-02-09T10:44:02.255Z,1001.21
2019-02-09T10:45:02.378Z,1001.18
2019-02-09T10:46:02.167Z,1000.95
2019-02-09T10:47:02.114Z,1001.28
2019-02-09T10:48:02.070Z,1001.11
2019-02-09T10:49:02.017Z,1001.13
2019-02-09T10:50:01.994Z,1001.11
2019-02-09T10:51:01.941Z,1001.28
2019-02-09T10:52:01.894Z,1001.30
2019-02-09T10:53:01.829Z,1001.16
2019-02-09T10:54:01.791Z,1001.29
2019-02-09T10:55:01.732Z,1001.27
2019-02-09T10:56:01.685Z,1001.26
2019-02-09T10:57:01.637Z,1001.37
2019-02-09T10:58:01.602Z,1001.39
2019-02-09T10:59:01.545Z,1001.37
2019-02-09T11:00:01.629Z,1001.34
2019-02-09T11:01:01.457Z,1001.20
2019-02-09T11:02:01.408Z,1001.34
2019-02-09T11:03:01.355Z,1001.37
2019-02-09T11:04:01.316Z,1001.32
2019-02-09T11:05:01.257Z,1001.42
2019-02-09T11:06:01.212Z,1001.43
2019-02-09T11:07:01.164Z,1001.35
2019-02-09T11:08:01.118Z,1001.00
2019-02-09T11:09:01.076Z,1001.32
2019-02-09T11:10:01.039Z,1001.28
2019-02-09T11:11:00.977Z,1001.37
2019-02-09T11:12:00.932Z,1001.21
2019-02-09T11:13:00.881Z,1001.21
2019-02-09T11:14:00.836Z,1001.23
2019-02-09T11:15:00.792Z,1001.31
2019-02-09T11:16:01.634Z,1001.18
2019-02-09T11:17:00.690Z,1001.34
2019-02-09T11:18:00.650Z,1001.17
2019-02-09T11:19:00.609Z,1001.15
2019-02-09T11:20:00.549Z,1001.17
2019-02-09T11:21:00.501Z,1001.11
2019-02-09T11:22:00.466Z,1001.24
2019-02-09T11:23:00.411Z,1001.18
2019-02-09T11:24:00.359Z,1001.19
2019-02-09T11:25:00.313Z,1001.12
2019-02-09T11:26:00.270Z,1001.13
2019-02-09T11:27:00.219Z,1001.02
2019-02-09T11:28:00.178Z,1001.15
2019-02-09T11:29:00.473Z,1000.98
2019-02-09T11:30:00.094Z,1001.27
2019-02-09T11:31:00.034Z,1001.07
2019-02-09T11:31:59.988Z,1001.18
2019-02-09T11:33:02.340Z,1001.29
2019-02-09T11:33:59.893Z,1001.10
2019-02-09T11:34:59.839Z,1001.18
2019-02-09T11:36:00.083Z,1001.05
2019-02-09T11:36:59.746Z,1001.01
2019-02-09T11:37:59.696Z,1000.90
2019-02-09T11:38:59.661Z,1001.07
2019-02-09T11:39:59.605Z,1000.95
2019-02-09T11:40:59.564Z,1001.06
2019-02-09T11:41:59.511Z,1000.96
2019-02-09T11:42:59.461Z,1000.70
2019-02-09T11:43:59.425Z,1000.90
2019-02-09T11:44:59.373Z,1000.91
2019-02-09T11:45:59.328Z,1000.82
2019-02-09T11:46:59.281Z,1001.11
2019-02-09T11:47:59.233Z,1001.05
2019-02-09T11:48:59.189Z,1001.07
2019-02-09T11:49:59.137Z,1001.10
2019-02-09T11:50:59.144Z,1000.94
2019-02-09T11:51:59.359Z,1000.98
2019-02-09T11:52:58.989Z,1001.01
2019-02-09T11:53:58.950Z,1000.97
2019-02-09T11:54:58.906Z,1001.07
2019-02-09T11:55:58.861Z,1001.20
2019-02-09T11:56:58.818Z,1000.98
2019-02-09T11:57:58.753Z,1001.14
2019-02-09T11:58:58.714Z,1001.56
2019-02-09T11:59:58.670Z,1001.20
2019-02-09T12:00:58.627Z,1001.19
2019-02-09T12:01:58.564Z,1001.27
2019-02-09T12:03:03.875Z,1001.47
2019-02-09T12:03:58.477Z,1001.39
2019-02-09T12:04:58.426Z,1001.18
2019-02-09T12:05:58.383Z,1001.33
2019-02-09T12:06:58.332Z,1001.16
2019-02-09T12:07:58.285Z,1001.09
2019-02-09T12:08:58.240Z,1001.01
2019-02-09T12:09:58.193Z,1001.29
2019-02-09T12:10:58.151Z,1001.24
2019-02-09T12:11:58.096Z,1000.99
2019-02-09T12:12:58.054Z,1001.23
2019-02-09T12:13:58.002Z,1001.16
2019-02-09T12:14:57.968Z,1001.24
2019-02-09T12:15:57.916Z,1001.08
2019-02-09T12:16:57.863Z,1001.39
2019-02-09T12:17:57.823Z,1001.29
2019-02-09T12:18:57.777Z,1001.38
2019-02-09T12:19:57.722Z,1001.34